createdAt,value
2018-06-17T00:01:14.615Z,6.10
2018-06-17T00:03:42.808Z,5.03
2018-06-17T00:06:10.755Z,4.10
2018-06-17T00:08:38.912Z,4.73
2018-06-17T00:11:07.151Z,11.40
2018-06-17T00:13:35.336Z,8.13
2018-06-17T00:16:03.517Z,7.93
2018-06-17T00:18:31.712Z,6.33
2018-06-17T00:20:59.881Z,5.67
2018-06-17T00:23:28.069Z,6.23
2018-06-17T00:25:56.235Z,6.33
2018-06-17T00:28:24.409Z,4.20
2018-06-17T00:30:52.600Z,14.27
2018-06-17T00:33:20.763Z,7.13
2018-06-17T00:35:48.954Z,6.57
2018-06-17T00:38:17.147Z,6.43
2018-06-17T00:40:45.349Z,5.57
2018-06-17T00:43:13.740Z,6.33
2018-06-17T00:45:41.908Z,6.50
2018-06-17T00:48:10.084Z,7.10
2018-06-17T00:50:38.245Z,8.97
2018-06-17T00:53:06.442Z,4.90
2018-06-17T00:55:34.616Z,7.97
2018-06-17T00:58:02.804Z,5.67
2018-06-17T01:00:30.994Z,10.53
2018-06-17T01:02:59.158Z,8.93
2018-06-17T01:05:27.345Z,4.17
2018-06-17T01:07:55.286Z,6.90
2018-06-17T01:10:23.537Z,8.87
2018-06-17T01:12:51.722Z,7.47
2018-06-17T01:15:19.880Z,7.70
2018-06-17T01:17:48.063Z,9.77
2018-06-17T01:20:16.298Z,10.30
2018-06-17T01:22:44.244Z,7.30
2018-06-17T01:25:12.425Z,10.40
2018-06-17T01:27:40.603Z,6.80
2018-06-17T01:30:08.554Z,4.87
2018-06-17T01:32:36.732Z,9.47
2018-06-17T01:35:04.966Z,11.53
2018-06-17T01:37:33.120Z,5.00
2018-06-17T01:40:01.294Z,5.90
2018-06-17T01:42:29.464Z,11.20
2018-06-17T01:44:57.751Z,4.70
2018-06-17T01:47:25.951Z,12.30
2018-06-17T01:49:54.217Z,9.10
2018-06-17T01:52:22.401Z,6.07
2018-06-17T01:54:50.608Z,5.73
2018-06-17T01:57:18.799Z,6.17
2018-06-17T01:59:46.975Z,11.70
2018-06-17T02:02:15.151Z,11.10
2018-06-17T02:04:48.716Z,10.77
2018-06-17T02:07:22.269Z,9.03
2018-06-17T02:09:55.898Z,12.03
2018-06-17T02:12:24.071Z,12.40
2018-06-17T02:14:55.248Z,10.80
2018-06-17T02:17:24.084Z,11.20
2018-06-17T02:19:53.036Z,21.30
2018-06-17T02:22:20.987Z,12.43
2018-06-17T02:24:49.173Z,10.23
2018-06-17T02:27:17.238Z,8.30
2018-06-17T02:29:45.175Z,16.27
2018-06-17T02:32:13.404Z,8.90
2018-06-17T02:34:41.601Z,14.30
2018-06-17T02:37:10.265Z,14.40
2018-06-17T02:39:38.438Z,12.80
2018-06-17T02:42:07.227Z,15.60
2018-06-17T02:44:35.424Z,21.00
2018-06-17T02:47:08.995Z,17.93
2018-06-17T02:49:39.530Z,17.23
2018-06-17T02:52:13.841Z,13.30
2018-06-17T02:54:44.262Z,16.40
2018-06-17T02:57:14.616Z,21.87
2018-06-17T02:59:43.452Z,16.57
2018-06-17T03:02:12.063Z,15.90
2018-06-17T03:04:40.269Z,15.47
2018-06-17T03:07:08.445Z,35.67
2018-06-17T03:09:36.631Z,19.60
2018-06-17T03:12:04.883Z,25.87
2018-06-17T03:14:33.072Z,20.43
2018-06-17T03:17:01.243Z,27.40
2018-06-17T03:19:29.411Z,22.87
2018-06-17T03:21:57.596Z,11.93
2018-06-17T03:24:31.325Z,23.40
2018-06-17T03:27:04.810Z,19.33
2018-06-17T03:29:38.467Z,27.03
2018-06-17T03:32:12.035Z,25.10
2018-06-17T03:34:40.581Z,30.90
2018-06-17T03:37:08.768Z,26.87
2018-06-17T03:39:36.960Z,31.30
2018-06-17T03:42:05.131Z,25.20
2018-06-17T03:44:33.324Z,31.53
2018-06-17T03:47:01.265Z,27.30
2018-06-17T03:49:29.444Z,26.13
2018-06-17T03:51:57.618Z,39.10
2018-06-17T03:54:25.835Z,34.67
2018-06-17T03:56:54.015Z,38.10
2018-06-17T03:59:22.186Z,25.47
2018-06-17T04:01:50.376Z,28.63
2018-06-17T04:04:18.600Z,47.90
2018-06-17T04:06:46.538Z,24.73
2018-06-17T04:09:14.708Z,48.03
2018-06-17T04:11:42.899Z,38.73
2018-06-17T04:14:11.087Z,31.77
2018-06-17T04:16:39.260Z,32.27
2018-06-17T04:19:07.485Z,29.97
2018-06-17T04:21:35.691Z,30.70
2018-06-17T04:24:03.899Z,40.77
2018-06-17T04:26:32.171Z,35.60
2018-06-17T04:29:00.370Z,35.17
2018-06-17T04:31:28.546Z,27.30
2018-06-17T04:33:56.740Z,25.93
2018-06-17T04:36:24.899Z,22.77
2018-06-17T04:38:53.080Z,28.47
2018-06-17T04:41:21.255Z,27.90
2018-06-17T04:43:49.437Z,20.77
2018-06-17T04:46:17.668Z,23.47
2018-06-17T04:48:45.604Z,22.20
2018-06-17T04:51:13.774Z,21.70
2018-06-17T04:53:41.955Z,20.73
2018-06-17T04:56:10.152Z,27.53
2018-06-17T04:58:38.362Z,23.33
2018-06-17T05:01:06.593Z,25.03
2018-06-17T05:03:34.540Z,29.53
2018-06-17T05:06:02.696Z,16.13
2018-06-17T05:08:30.943Z,13.50
2018-06-17T05:10:59.101Z,21.10
2018-06-17T05:13:27.285Z,23.17
2018-06-17T05:15:55.467Z,18.77
2018-06-17T05:18:23.649Z,17.03
2018-06-17T05:20:51.835Z,17.63
2018-06-17T05:23:20.011Z,26.10
2018-06-17T05:25:48.173Z,15.70
2018-06-17T05:28:16.453Z,23.47
2018-06-17T05:30:44.676Z,22.03
2018-06-17T05:33:12.602Z,20.87
2018-06-17T05:35:40.779Z,26.30
2018-06-17T05:38:08.972Z,14.90
2018-06-17T05:40:37.157Z,19.20
2018-06-17T05:43:05.427Z,23.77
2018-06-17T05:45:33.711Z,11.40
2018-06-17T05:48:01.675Z,20.60
2018-06-17T05:50:29.859Z,12.57
2018-06-17T05:52:58.154Z,14.33
2018-06-17T05:55:26.344Z,14.60
2018-06-17T05:57:54.520Z,12.80
2018-06-17T06:00:22.719Z,17.53
2018-06-17T06:02:50.947Z,9.37
2018-06-17T06:05:19.140Z,11.60
2018-06-17T06:07:47.336Z,13.10
2018-06-17T06:10:15.540Z,9.57
2018-06-17T06:12:43.723Z,13.63
2018-06-17T06:15:11.650Z,9.57
2018-06-17T06:17:39.835Z,6.70
2018-06-17T06:20:09.039Z,8.40
2018-06-17T06:22:37.287Z,11.50
2018-06-17T06:25:05.529Z,10.87
2018-06-17T06:27:33.763Z,13.33
2018-06-17T06:30:01.993Z,8.33
2018-06-17T06:32:30.344Z,10.97
2018-06-17T06:34:58.831Z,13.10
2018-06-17T06:37:27.028Z,17.53
2018-06-17T06:39:55.401Z,18.20
2018-06-17T06:42:23.627Z,16.23
2018-06-17T06:44:51.836Z,12.10
2018-06-17T06:47:20.142Z,8.40
2018-06-17T06:49:48.393Z,7.70
2018-06-17T06:52:16.622Z,13.00
2018-06-17T06:54:44.852Z,10.93
2018-06-17T06:57:13.089Z,10.40
2018-06-17T06:59:41.272Z,9.40
2018-06-17T07:02:14.855Z,8.60
2018-06-17T07:04:54.524Z,9.53
2018-06-17T07:07:27.926Z,13.77
2018-06-17T07:10:07.662Z,11.40
2018-06-17T07:12:35.824Z,14.60
2018-06-17T07:15:03.796Z,12.90
2018-06-17T07:17:37.398Z,8.67
2018-06-17T07:20:05.344Z,4.53
2018-06-17T07:22:33.577Z,5.73
2018-06-17T07:25:01.760Z,7.30
2018-06-17T07:27:41.177Z,9.73
2018-06-17T07:30:09.354Z,9.97
2018-06-17T07:32:37.590Z,10.57
2018-06-17T07:35:05.707Z,5.57
2018-06-17T07:37:33.891Z,8.20
2018-06-17T07:40:20.065Z,9.90
2018-06-17T07:42:49.561Z,5.60
2018-06-17T07:45:17.759Z,7.93
2018-06-17T07:47:45.929Z,5.40
2018-06-17T07:50:25.542Z,8.93
2018-06-17T07:53:05.622Z,14.00
2018-06-17T07:55:33.880Z,13.30
2018-06-17T07:58:02.364Z,9.00
2018-06-17T08:00:31.051Z,12.20
2018-06-17T08:02:59.259Z,5.00
2018-06-17T08:05:27.431Z,7.40
2018-06-17T08:07:55.611Z,5.07
2018-06-17T08:10:23.800Z,6.80
2018-06-17T08:12:51.975Z,15.13
2018-06-17T08:15:20.159Z,8.57
2018-06-17T08:17:48.344Z,14.03
2018-06-17T08:20:16.328Z,12.23
2018-06-17T08:22:44.541Z,5.00
2018-06-17T08:25:12.720Z,10.13
2018-06-17T08:27:40.919Z,8.67
2018-06-17T08:30:09.120Z,10.57
2018-06-17T08:32:37.340Z,13.97
2018-06-17T08:35:05.545Z,6.90
2018-06-17T08:37:33.723Z,5.83
2018-06-17T08:40:01.924Z,11.97
2018-06-17T08:42:30.088Z,9.63
2018-06-17T08:44:58.298Z,13.00
2018-06-17T08:47:26.524Z,6.43
2018-06-17T08:49:54.505Z,14.00
2018-06-17T08:52:22.676Z,10.40
2018-06-17T08:54:50.615Z,9.37
2018-06-17T08:57:18.797Z,10.20
2018-06-17T08:59:46.973Z,13.17
2018-06-17T09:02:15.144Z,10.10
2018-06-17T09:04:43.354Z,9.20
2018-06-17T09:07:11.524Z,8.47
2018-06-17T09:09:39.720Z,8.87
2018-06-17T09:12:07.959Z,8.90
2018-06-17T09:14:36.140Z,11.27
2018-06-17T09:17:04.347Z,13.87
2018-06-17T09:19:32.531Z,10.63
2018-06-17T09:22:00.723Z,7.90
2018-06-17T09:24:28.905Z,9.13
2018-06-17T09:26:57.115Z,8.13
2018-06-17T09:29:25.276Z,10.40
2018-06-17T09:31:53.527Z,8.17
2018-06-17T09:34:21.644Z,11.07
2018-06-17T09:36:49.835Z,10.07
2018-06-17T09:39:18.049Z,11.80
2018-06-17T09:41:46.232Z,8.27
2018-06-17T09:44:14.181Z,8.23
2018-06-17T09:46:42.376Z,7.47
2018-06-17T09:49:10.315Z,8.50
2018-06-17T09:51:38.497Z,7.43
2018-06-17T09:54:06.693Z,10.43
2018-06-17T09:56:35.480Z,12.10
2018-06-17T09:59:03.436Z,6.40
2018-06-17T10:01:31.638Z,9.10
2018-06-17T10:03:59.777Z,13.37
2018-06-17T10:06:27.972Z,9.77
2018-06-17T10:08:56.196Z,11.00
2018-06-17T10:11:24.311Z,7.97
2018-06-17T10:13:52.508Z,10.60
2018-06-17T10:16:20.444Z,7.67
2018-06-17T10:18:48.635Z,6.30
2018-06-17T10:21:16.874Z,10.73
2018-06-17T10:23:45.045Z,4.53
2018-06-17T10:26:13.242Z,9.47
2018-06-17T10:28:41.416Z,9.50
2018-06-17T10:31:09.580Z,9.87
2018-06-17T10:33:37.775Z,5.57
2018-06-17T10:36:06.053Z,3.57
2018-06-17T10:38:34.392Z,10.10
2018-06-17T10:41:02.605Z,5.80
2018-06-17T10:43:31.689Z,3.60
2018-06-17T10:45:59.877Z,12.53
2018-06-17T10:48:27.803Z,4.20
2018-06-17T10:50:55.995Z,4.70
2018-06-17T10:53:24.176Z,6.63
2018-06-17T10:55:52.620Z,6.80
2018-06-17T10:58:20.688Z,13.30
2018-06-17T11:00:48.877Z,9.57
2018-06-17T11:03:17.064Z,5.70
2018-06-17T11:05:45.251Z,8.30
2018-06-17T11:08:13.443Z,9.10
2018-06-17T11:10:41.628Z,5.03
2018-06-17T11:13:09.841Z,14.43
2018-06-17T11:15:38.011Z,6.20
2018-06-17T11:18:06.196Z,10.00
2018-06-17T11:20:34.377Z,5.63
2018-06-17T11:23:02.580Z,6.90
2018-06-17T11:25:30.748Z,8.63
2018-06-17T11:27:58.668Z,4.83
2018-06-17T11:30:26.843Z,5.17
2018-06-17T11:32:55.048Z,8.63
2018-06-17T11:35:23.247Z,4.80
2018-06-17T11:37:51.212Z,12.90
2018-06-17T11:40:19.164Z,5.10
2018-06-17T11:42:47.364Z,7.50
2018-06-17T11:45:15.545Z,4.60
2018-06-17T11:47:43.744Z,14.70
2018-06-17T11:50:11.912Z,8.27
2018-06-17T11:52:40.171Z,6.63
2018-06-17T11:55:08.340Z,7.40
2018-06-17T11:57:36.531Z,6.73
2018-06-17T12:00:05.316Z,7.13
2018-06-17T12:02:33.495Z,7.60
2018-06-17T12:05:01.664Z,5.90
2018-06-17T12:07:29.866Z,9.33
2018-06-17T12:09:58.037Z,9.30
2018-06-17T12:12:26.234Z,3.43
2018-06-17T12:14:54.464Z,9.80
2018-06-17T12:17:22.651Z,4.37
2018-06-17T12:19:50.870Z,6.33
2018-06-17T12:22:19.049Z,5.23
2018-06-17T12:24:47.001Z,7.77
2018-06-17T12:27:15.181Z,8.27
2018-06-17T12:29:43.349Z,6.80
2018-06-17T12:32:11.535Z,6.00
2018-06-17T12:34:39.472Z,8.90
2018-06-17T12:37:07.658Z,7.23
2018-06-17T12:39:35.820Z,10.53
2018-06-17T12:42:04.024Z,7.30
2018-06-17T12:44:31.951Z,11.17
2018-06-17T12:47:00.141Z,8.80
2018-06-17T12:49:28.313Z,7.20
2018-06-17T12:51:56.485Z,8.47
2018-06-17T12:54:24.668Z,8.70
2018-06-17T12:56:52.848Z,6.73
2018-06-17T12:59:21.012Z,8.73
2018-06-17T13:01:49.194Z,6.30
2018-06-17T13:04:17.391Z,3.90
2018-06-17T13:06:45.335Z,8.37
2018-06-17T13:09:13.511Z,6.97
2018-06-17T13:11:41.684Z,7.17
2018-06-17T13:14:09.860Z,7.10
2018-06-17T13:16:38.064Z,4.83
2018-06-17T13:19:06.580Z,5.90
2018-06-17T13:21:34.772Z,9.00
2018-06-17T13:24:02.945Z,7.90
2018-06-17T13:26:31.123Z,13.27
2018-06-17T13:28:59.310Z,9.20
2018-06-17T13:31:27.496Z,4.90
2018-06-17T13:33:55.676Z,4.40
2018-06-17T13:36:23.844Z,9.87
2018-06-17T13:38:52.045Z,6.53
2018-06-17T13:41:20.205Z,6.70
2018-06-17T13:43:48.420Z,4.80
2018-06-17T13:46:16.628Z,8.80
2018-06-17T13:48:44.819Z,7.93
2018-06-17T13:51:13.008Z,10.43
2018-06-17T13:53:41.196Z,12.80
2018-06-17T13:56:09.390Z,6.93
2018-06-17T13:58:37.562Z,5.23
2018-06-17T14:01:05.728Z,7.30
2018-06-17T14:03:33.909Z,6.90
2018-06-17T14:06:08.513Z,7.53
2018-06-17T14:08:36.708Z,7.77
2018-06-17T14:11:04.906Z,6.10
2018-06-17T14:13:33.132Z,9.20
2018-06-17T14:16:01.269Z,10.43
2018-06-17T14:18:29.195Z,3.67
2018-06-17T14:20:57.389Z,6.70
2018-06-17T14:23:25.556Z,6.60
2018-06-17T14:25:53.723Z,4.93
2018-06-17T14:28:21.927Z,8.17
2018-06-17T14:30:49.856Z,5.47
2018-06-17T14:33:18.072Z,3.40
2018-06-17T14:35:46.292Z,7.47
2018-06-17T14:38:14.439Z,6.03
2018-06-17T14:40:47.946Z,7.20
2018-06-17T14:43:21.684Z,6.73
2018-06-17T14:45:55.379Z,10.40
2018-06-17T14:48:29.038Z,8.13
2018-06-17T14:53:05.136Z,9.20
2018-06-17T14:55:33.471Z,5.73
2018-06-17T14:58:01.968Z,10.40
2018-06-17T15:00:30.163Z,8.33
2018-06-17T15:02:58.344Z,4.67
2018-06-17T15:05:26.520Z,11.80
2018-06-17T15:07:54.726Z,11.60
2018-06-17T15:10:22.889Z,7.83
2018-06-17T15:12:51.093Z,9.10
2018-06-17T15:15:19.300Z,7.83
2018-06-17T15:17:47.450Z,9.63
2018-06-17T15:20:15.676Z,5.43
2018-06-17T15:22:43.888Z,3.73
2018-06-17T15:25:11.818Z,10.67
2018-06-17T15:27:40.066Z,13.87
2018-06-17T15:30:08.279Z,11.13
2018-06-17T15:32:41.950Z,8.50
2018-06-17T15:35:15.663Z,7.43
2018-06-17T15:37:49.368Z,11.70
2018-06-17T15:40:17.552Z,5.60
2018-06-17T15:42:45.751Z,12.03
2018-06-17T15:45:13.923Z,9.37
2018-06-17T15:47:42.119Z,10.03
2018-06-17T15:50:10.304Z,13.50
2018-06-17T15:52:38.494Z,7.50
2018-06-17T15:55:06.727Z,14.23
2018-06-17T15:57:34.900Z,11.60
2018-06-17T16:00:03.064Z,8.93
2018-06-17T16:02:31.249Z,8.53
2018-06-17T16:04:59.411Z,11.27
2018-06-17T16:07:27.598Z,10.77
2018-06-17T16:09:55.769Z,9.53
2018-06-17T16:12:29.263Z,6.87
2018-06-17T16:15:02.792Z,6.90
2018-06-17T16:17:36.473Z,6.90
2018-06-17T16:20:09.943Z,6.80
2018-06-17T16:27:15.216Z,3.97
2018-06-17T16:29:43.412Z,5.67
2018-06-17T16:32:11.363Z,4.53
2018-06-17T16:34:39.552Z,6.20
2018-06-17T16:37:07.720Z,6.87
2018-06-17T16:39:35.900Z,4.53
2018-06-17T16:42:04.084Z,5.20
2018-06-17T16:44:32.299Z,4.07
2018-06-17T16:47:00.484Z,4.57
2018-06-17T16:49:28.655Z,8.97
2018-06-17T16:52:02.368Z,7.20
2018-06-17T16:54:36.228Z,4.47
2018-06-17T16:57:09.995Z,6.40
2018-06-17T16:59:43.609Z,6.50
2018-06-17T17:02:18.600Z,13.60
2018-06-17T17:04:46.831Z,8.07
2018-06-17T17:07:15.053Z,7.30
2018-06-17T17:09:43.226Z,5.70
2018-06-17T17:12:11.415Z,10.83
2018-06-17T17:14:39.605Z,8.50
2018-06-17T17:17:07.826Z,8.40
2018-06-17T17:19:36.151Z,5.53
2018-06-17T17:22:04.325Z,9.20
2018-06-17T17:24:32.508Z,9.57
2018-06-17T17:27:00.696Z,7.70
2018-06-17T17:29:28.650Z,6.70
2018-06-17T17:32:02.425Z,8.87
2018-06-17T17:34:36.038Z,7.03
2018-06-17T17:37:09.731Z,11.73
2018-06-17T17:39:43.141Z,11.93
2018-06-17T17:42:11.343Z,9.07
2018-06-17T17:44:45.021Z,10.07
2018-06-17T17:47:18.720Z,9.20
2018-06-17T17:49:46.904Z,7.33
2018-06-17T17:52:15.159Z,9.23
2018-06-17T17:54:43.429Z,11.93
2018-06-17T17:57:11.609Z,10.40
2018-06-17T17:59:39.791Z,5.90
2018-06-17T18:02:07.991Z,10.80
2018-06-17T18:04:35.955Z,9.60
2018-06-17T18:07:04.186Z,10.93
2018-06-17T18:09:32.955Z,7.30
2018-06-17T18:12:01.140Z,15.20
2018-06-17T18:14:29.640Z,11.33
2018-06-17T18:16:57.808Z,8.10
2018-06-17T18:19:26.264Z,12.77
2018-06-17T18:21:54.466Z,15.87
2018-06-17T18:24:22.717Z,11.20
2018-06-17T18:26:56.140Z,12.10
2018-06-17T18:29:29.772Z,9.30
2018-06-17T18:32:03.367Z,6.73
2018-06-17T18:34:37.140Z,10.30
2018-06-17T18:37:05.560Z,14.67
2018-06-17T18:39:33.772Z,11.50
2018-06-17T18:42:01.962Z,8.50
2018-06-17T18:44:30.127Z,12.87
2018-06-17T18:46:58.319Z,16.60
2018-06-17T18:49:26.491Z,10.00
2018-06-17T18:51:54.688Z,8.87
2018-06-17T18:54:22.896Z,12.03
2018-06-17T18:56:52.480Z,8.20
2018-06-17T18:59:20.644Z,6.77
2018-06-17T19:01:48.894Z,7.33
2018-06-17T19:04:17.116Z,10.27
2018-06-17T19:06:45.331Z,9.10
2018-06-17T19:09:18.717Z,12.93
2018-06-17T19:11:52.169Z,12.33
2018-06-17T19:14:25.617Z,9.67
2018-06-17T19:16:59.448Z,17.93
2018-06-17T19:19:27.631Z,11.10
2018-06-17T19:21:55.822Z,9.60
2018-06-17T19:24:24.025Z,12.43
2018-06-17T19:26:52.212Z,11.77
2018-06-17T19:29:20.532Z,18.40
2018-06-17T19:31:48.750Z,19.77
2018-06-17T19:34:16.967Z,18.60
2018-06-17T19:36:45.151Z,11.53
2018-06-17T19:39:13.319Z,11.60
2018-06-17T19:41:41.548Z,18.83
2018-06-17T19:44:09.729Z,13.30
2018-06-17T19:46:38.033Z,10.70
2018-06-17T19:49:06.597Z,11.13
2018-06-17T19:51:40.208Z,12.70
2018-06-17T19:54:13.812Z,20.43
2018-06-17T19:56:47.188Z,12.87
2018-06-17T19:59:20.921Z,13.83
2018-06-17T20:01:49.108Z,7.90
2018-06-17T20:04:18.279Z,14.97
2018-06-17T20:06:46.461Z,10.30
2018-06-17T20:09:14.660Z,6.77
2018-06-17T20:11:42.907Z,8.70
2018-06-17T20:14:11.093Z,11.00
2018-06-17T20:16:40.055Z,12.30
2018-06-17T20:19:08.229Z,9.40
2018-06-17T20:21:36.417Z,10.67
2018-06-17T20:24:04.594Z,12.27
2018-06-17T20:26:32.768Z,12.23
2018-06-17T20:29:00.969Z,8.60
2018-06-17T20:31:29.145Z,7.80
2018-06-17T20:35:03.454Z,10.33
2018-06-17T20:37:36.904Z,11.40
2018-06-17T20:40:10.472Z,9.80
2018-06-17T20:42:44.211Z,11.60
2018-06-17T20:45:12.428Z,10.20
2018-06-17T20:47:40.621Z,11.97
2018-06-17T20:50:08.932Z,7.70
2018-06-17T20:52:37.208Z,12.67
2018-06-17T20:55:05.515Z,13.13
2018-06-17T20:57:33.699Z,8.57
2018-06-17T21:00:01.871Z,11.80
2018-06-17T21:02:30.073Z,8.00
2018-06-17T21:04:58.237Z,14.57
2018-06-17T21:07:26.393Z,10.30
2018-06-17T21:09:54.579Z,11.13
2018-06-17T21:12:22.744Z,9.17
2018-06-17T21:14:50.923Z,15.07
2018-06-17T21:17:19.164Z,7.13
2018-06-17T21:20:56.310Z,9.60
2018-06-17T21:23:29.864Z,7.10
2018-06-17T21:27:06.260Z,9.03
2018-06-17T21:29:34.443Z,12.13
2018-06-17T21:32:02.391Z,7.37
2018-06-17T21:34:30.603Z,10.93
2018-06-17T21:36:58.804Z,6.27
2018-06-17T21:39:26.992Z,14.40
2018-06-17T21:41:55.164Z,9.00
2018-06-17T21:44:23.346Z,13.00
2018-06-17T21:46:51.527Z,14.50
2018-06-17T21:49:19.782Z,5.33
2018-06-17T21:51:47.936Z,12.00
2018-06-17T21:54:16.243Z,14.73
2018-06-17T21:56:44.469Z,10.60
2018-06-17T21:59:12.679Z,6.37
2018-06-17T22:01:40.855Z,8.03
2018-06-17T22:04:14.570Z,9.43
2018-06-17T22:06:42.760Z,13.33
2018-06-17T22:09:16.448Z,7.93
2018-06-17T22:11:50.065Z,8.53
2018-06-17T22:15:24.152Z,8.23
2018-06-17T22:17:53.320Z,12.20
2018-06-17T22:20:21.801Z,14.73
2018-06-17T22:22:49.992Z,6.80
2018-06-17T22:25:18.777Z,10.33
2018-06-17T22:27:46.983Z,15.93
2018-06-17T22:30:15.212Z,10.50
2018-06-17T22:32:43.447Z,14.00
2018-06-17T22:35:11.638Z,7.97
2018-06-17T22:37:39.822Z,15.20
2018-06-17T22:40:07.792Z,6.03
2018-06-17T22:42:36.100Z,9.60
2018-06-17T22:45:04.411Z,6.63
2018-06-17T22:47:38.061Z,6.23
2018-06-17T22:50:06.544Z,7.87
2018-06-17T22:52:46.248Z,13.90
2018-06-17T22:55:14.516Z,15.60
2018-06-17T22:57:48.083Z,8.50
2018-06-17T23:00:21.783Z,13.00
2018-06-17T23:02:55.484Z,9.20
2018-06-17T23:05:29.025Z,9.93
2018-06-17T23:08:02.712Z,10.63
2018-06-17T23:10:30.911Z,7.70
2018-06-17T23:12:59.077Z,7.77
2018-06-17T23:15:27.244Z,8.73
2018-06-17T23:17:55.420Z,13.07
2018-06-17T23:20:23.583Z,8.30
2018-06-17T23:22:51.784Z,7.33
2018-06-17T23:25:19.719Z,15.90
2018-06-17T23:27:47.916Z,8.80
2018-06-17T23:30:16.111Z,8.20
2018-06-17T23:32:45.220Z,16.27
2018-06-17T23:35:13.386Z,9.83
2018-06-17T23:37:41.565Z,12.93
2018-06-17T23:40:09.719Z,9.33
2018-06-17T23:42:37.680Z,9.47
2018-06-17T23:45:05.837Z,8.43
2018-06-17T23:47:39.416Z,12.77
2018-06-17T23:50:13.012Z,8.03
2018-06-17T23:52:46.660Z,19.13
2018-06-17T23:55:20.244Z,12.30
2018-06-17T23:57:48.448Z,11.90
